sensor_id;sensor_type;location;lat;lon;timestamp;P1;durP1;ratioP1;P2;durP2;ratioP2
57889;SDS011;43707;50.184;18.966;2023-11-21T00:01:15;0.50;;;0.40;;
57889;SDS011;43707;50.184;18.966;2023-11-21T00:03:42;0.40;;;0.30;;
57889;SDS011;43707;50.184;18.966;2023-11-21T00:06:08;0.60;;;0.60;;
57889;SDS011;43707;50.184;18.966;2023-11-21T00:08:33;0.60;;;0.50;;
57889;SDS011;43707;50.184;18.966;2023-11-21T00:10:59;0.30;;;0.30;;
57889;SDS011;43707;50.184;18.966;2023-11-21T00:13:25;0.30;;;0.30;;
57889;SDS011;43707;50.184;18.966;2023-11-21T00:15:51;0.30;;;0.30;;
57889;SDS011;43707;50.184;18.966;2023-11-21T00:18:17;3.00;;;0.40;;
57889;SDS011;43707;50.184;18.966;2023-11-21T00:20:42;0.50;;;0.40;;
57889;SDS011;43707;50.184;18.966;2023-11-21T00:23:07;1.80;;;0.30;;
57889;SDS011;43707;50.184;18.966;2023-11-21T00:25:34;0.30;;;0.30;;
57889;SDS011;43707;50.184;18.966;2023-11-21T00:28:00;0.70;;;0.50;;
57889;SDS011;43707;50.184;18.966;2023-11-21T00:30:27;0.30;;;0.30;;
57889;SDS011;43707;50.184;18.966;2023-11-21T00:32:53;0.30;;;0.20;;
57889;SDS011;43707;50.184;18.966;2023-11-21T00:35:19;0.30;;;0.30;;
57889;SDS011;43707;50.184;18.966;2023-11-21T00:37:45;0.60;;;0.30;;
57889;SDS011;43707;50.184;18.966;2023-11-21T00:40:11;0.50;;;0.40;;
57889;SDS011;43707;50.184;18.966;2023-11-21T00:42:37;0.40;;;0.20;;
57889;SDS011;43707;50.184;18.966;2023-11-21T00:45:03;0.90;;;0.40;;
57889;SDS011;43707;50.184;18.966;2023-11-21T00:47:28;0.40;;;0.30;;
57889;SDS011;43707;50.184;18.966;2023-11-21T00:49:54;0.20;;;0.20;;
57889;SDS011;43707;50.184;18.966;2023-11-21T00:52:19;0.20;;;0.20;;
57889;SDS011;43707;50.184;18.966;2023-11-21T00:54:45;0.50;;;0.30;;
57889;SDS011;43707;50.184;18.966;2023-11-21T00:57:13;0.30;;;0.30;;
57889;SDS011;43707;50.184;18.966;2023-11-21T00:59:39;0.30;;;0.30;;
57889;SDS011;43707;50.184;18.966;2023-11-21T01:02:04;0.20;;;0.20;;
57889;SDS011;43707;50.184;18.966;2023-11-21T01:04:30;0.20;;;0.20;;
57889;SDS011;43707;50.184;18.966;2023-11-21T01:06:56;0.20;;;0.20;;
57889;SDS011;43707;50.184;18.966;2023-11-21T01:09:22;0.70;;;0.20;;
57889;SDS011;43707;50.184;18.966;2023-11-21T01:11:48;0.30;;;0.30;;
57889;SDS011;43707;50.184;18.966;2023-11-21T01:14:14;0.30;;;0.20;;
57889;SDS011;43707;50.184;18.966;2023-11-21T01:16:39;0.20;;;0.20;;
57889;SDS011;43707;50.184;18.966;2023-11-21T01:19:05;0.10;;;0.10;;
57889;SDS011;43707;50.184;18.966;2023-11-21T01:21:30;1.60;;;0.30;;
57889;SDS011;43707;50.184;18.966;2023-11-21T01:23:56;0.20;;;0.20;;
57889;SDS011;43707;50.184;18.966;2023-11-21T01:26:22;0.30;;;0.30;;
57889;SDS011;43707;50.184;18.966;2023-11-21T01:28:48;1.60;;;0.20;;
57889;SDS011;43707;50.184;18.966;2023-11-21T01:31:14;0.10;;;0.10;;
57889;SDS011;43707;50.184;18.966;2023-11-21T01:33:40;0.20;;;0.20;;
57889;SDS011;43707;50.184;18.966;2023-11-21T01:36:06;0.20;;;0.20;;
57889;SDS011;43707;50.184;18.966;2023-11-21T01:38:32;0.40;;;0.20;;
57889;SDS011;43707;50.184;18.966;2023-11-21T01:40:57;0.10;;;0.10;;
57889;SDS011;43707;50.184;18.966;2023-11-21T01:43:25;0.10;;;0.10;;
57889;SDS011;43707;50.184;18.966;2023-11-21T01:45:52;0.10;;;0.10;;
57889;SDS011;43707;50.184;18.966;2023-11-21T01:48:19;0.10;;;0.10;;
57889;SDS011;43707;50.184;18.966;2023-11-21T01:50:44;0.10;;;0.10;;
57889;SDS011;43707;50.184;18.966;2023-11-21T01:53:11;0.20;;;0.20;;
57889;SDS011;43707;50.184;18.966;2023-11-21T01:55:38;0.10;;;0.10;;
57889;SDS011;43707;50.184;18.966;2023-11-21T01:58:05;0.10;;;0.10;;
57889;SDS011;43707;50.184;18.966;2023-11-21T02:00:32;0.90;;;0.20;;
57889;SDS011;43707;50.184;18.966;2023-11-21T02:02:58;0.10;;;0.10;;
57889;SDS011;43707;50.184;18.966;2023-11-21T02:05:24;0.20;;;0.10;;
57889;SDS011;43707;50.184;18.966;2023-11-21T02:07:51;0.10;;;0.10;;
57889;SDS011;43707;50.184;18.966;2023-11-21T02:10:17;0.10;;;0.10;;
57889;SDS011;43707;50.184;18.966;2023-11-21T02:12:48;0.10;;;0.10;;
57889;SDS011;43707;50.184;18.966;2023-11-21T02:15:15;0.10;;;0.10;;
57889;SDS011;43707;50.184;18.966;2023-11-21T02:17:49;0.10;;;0.10;;
57889;SDS011;43707;50.184;18.966;2023-11-21T02:20:19;0.10;;;0.10;;
57889;SDS011;43707;50.184;18.966;2023-11-21T02:25:29;0.10;;;0.10;;
57889;SDS011;43707;50.184;18.966;2023-11-21T02:27:57;0.10;;;0.10;;
57889;SDS011;43707;50.184;18.966;2023-11-21T02:30:24;0.10;;;0.10;;
57889;SDS011;43707;50.184;18.966;2023-11-21T02:32:53;0.00;;;0.00;;
57889;SDS011;43707;50.184;18.966;2023-11-21T02:35:19;0.10;;;0.10;;
57889;SDS011;43707;50.184;18.966;2023-11-21T02:37:49;0.10;;;0.10;;
57889;SDS011;43707;50.184;18.966;2023-11-21T02:40:15;0.00;;;0.00;;
57889;SDS011;43707;50.184;18.966;2023-11-21T02:42:48;0.00;;;0.00;;
57889;SDS011;43707;50.184;18.966;2023-11-21T02:45:16;0.10;;;0.10;;
57889;SDS011;43707;50.184;18.966;2023-11-21T02:47:43;0.20;;;0.10;;
57889;SDS011;43707;50.184;18.966;2023-11-21T02:50:09;0.10;;;0.10;;
57889;SDS011;43707;50.184;18.966;2023-11-21T02:52:35;0.10;;;0.10;;
57889;SDS011;43707;50.184;18.966;2023-11-21T02:55:03;0.20;;;0.10;;
57889;SDS011;43707;50.184;18.966;2023-11-21T02:57:29;0.10;;;0.10;;
57889;SDS011;43707;50.184;18.966;2023-11-21T02:59:54;0.10;;;0.10;;
57889;SDS011;43707;50.184;18.966;2023-11-21T03:02:20;0.10;;;0.10;;
57889;SDS011;43707;50.184;18.966;2023-11-21T03:04:46;1.20;;;0.20;;
57889;SDS011;43707;50.184;18.966;2023-11-21T03:07:13;0.10;;;0.10;;
57889;SDS011;43707;50.184;18.966;2023-11-21T03:09:38;1.70;;;0.20;;
57889;SDS011;43707;50.184;18.966;2023-11-21T03:12:04;0.10;;;0.10;;
57889;SDS011;43707;50.184;18.966;2023-11-21T03:14:30;0.60;;;0.10;;
57889;SDS011;43707;50.184;18.966;2023-11-21T03:16:56;1.30;;;0.20;;
57889;SDS011;43707;50.184;18.966;2023-11-21T03:19:22;0.20;;;0.20;;
57889;SDS011;43707;50.184;18.966;2023-11-21T03:21:48;0.10;;;0.10;;
57889;SDS011;43707;50.184;18.966;2023-11-21T03:24:13;0.10;;;0.10;;
57889;SDS011;43707;50.184;18.966;2023-11-21T03:26:44;0.20;;;0.10;;
57889;SDS011;43707;50.184;18.966;2023-11-21T03:29:10;1.50;;;0.20;;
57889;SDS011;43707;50.184;18.966;2023-11-21T03:31:35;0.10;;;0.10;;
57889;SDS011;43707;50.184;18.966;2023-11-21T03:34:01;0.20;;;0.20;;
57889;SDS011;43707;50.184;18.966;2023-11-21T03:36:27;0.20;;;0.20;;
57889;SDS011;43707;50.184;18.966;2023-11-21T03:38:52;0.20;;;0.20;;
57889;SDS011;43707;50.184;18.966;2023-11-21T03:41:17;2.30;;;0.20;;
57889;SDS011;43707;50.184;18.966;2023-11-21T03:43:43;1.20;;;0.10;;
57889;SDS011;43707;50.184;18.966;2023-11-21T03:46:09;0.60;;;0.40;;
57889;SDS011;43707;50.184;18.966;2023-11-21T03:48:35;0.20;;;0.20;;
57889;SDS011;43707;50.184;18.966;2023-11-21T03:51:00;0.30;;;0.20;;
57889;SDS011;43707;50.184;18.966;2023-11-21T03:53:26;1.30;;;0.20;;
57889;SDS011;43707;50.184;18.966;2023-11-21T03:55:51;0.20;;;0.20;;
57889;SDS011;43707;50.184;18.966;2023-11-21T03:58:17;0.30;;;0.20;;
57889;SDS011;43707;50.184;18.966;2023-11-21T04:00:42;1.80;;;0.20;;
57889;SDS011;43707;50.184;18.966;2023-11-21T04:03:07;0.60;;;0.20;;
57889;SDS011;43707;50.184;18.966;2023-11-21T04:05:33;0.20;;;0.20;;
57889;SDS011;43707;50.184;18.966;2023-11-21T04:07:58;0.10;;;0.10;;
57889;SDS011;43707;50.184;18.966;2023-11-21T04:10:24;0.10;;;0.10;;
57889;SDS011;43707;50.184;18.966;2023-11-21T04:12:49;0.20;;;0.20;;
57889;SDS011;43707;50.184;18.966;2023-11-21T04:15:15;0.50;;;0.20;;
57889;SDS011;43707;50.184;18.966;2023-11-21T04:17:41;0.10;;;0.10;;
57889;SDS011;43707;50.184;18.966;2023-11-21T04:20:07;0.10;;;0.10;;
57889;SDS011;43707;50.184;18.966;2023-11-21T04:22:37;1.30;;;0.30;;
57889;SDS011;43707;50.184;18.966;2023-11-21T04:25:07;0.40;;;0.30;;
57889;SDS011;43707;50.184;18.966;2023-11-21T04:27:34;0.20;;;0.20;;
57889;SDS011;43707;50.184;18.966;2023-11-21T04:30:00;0.10;;;0.10;;
57889;SDS011;43707;50.184;18.966;2023-11-21T04:32:25;0.40;;;0.20;;
57889;SDS011;43707;50.184;18.966;2023-11-21T04:34:51;0.20;;;0.20;;
57889;SDS011;43707;50.184;18.966;2023-11-21T04:37:16;0.40;;;0.20;;
57889;SDS011;43707;50.184;18.966;2023-11-21T04:39:41;0.20;;;0.20;;
57889;SDS011;43707;50.184;18.966;2023-11-21T04:42:07;0.30;;;0.30;;
57889;SDS011;43707;50.184;18.966;2023-11-21T04:44:32;0.70;;;0.30;;
57889;SDS011;43707;50.184;18.966;2023-11-21T04:46:58;0.40;;;0.40;;
57889;SDS011;43707;50.184;18.966;2023-11-21T04:49:23;3.50;;;0.50;;
57889;SDS011;43707;50.184;18.966;2023-11-21T04:51:48;0.30;;;0.30;;
57889;SDS011;43707;50.184;18.966;2023-11-21T04:54:14;0.40;;;0.30;;
57889;SDS011;43707;50.184;18.966;2023-11-21T04:56:39;0.40;;;0.30;;
57889;SDS011;43707;50.184;18.966;2023-11-21T04:59:05;0.30;;;0.30;;
57889;SDS011;43707;50.184;18.966;2023-11-21T05:01:30;0.30;;;0.30;;
57889;SDS011;43707;50.184;18.966;2023-11-21T05:03:56;0.50;;;0.30;;
57889;SDS011;43707;50.184;18.966;2023-11-21T05:06:22;0.70;;;0.40;;
57889;SDS011;43707;50.184;18.966;2023-11-21T05:08:49;0.60;;;0.30;;
57889;SDS011;43707;50.184;18.966;2023-11-21T05:11:24;0.30;;;0.30;;
57889;SDS011;43707;50.184;18.966;2023-11-21T05:13:50;0.90;;;0.60;;
57889;SDS011;43707;50.184;18.966;2023-11-21T05:16:16;0.90;;;0.80;;
57889;SDS011;43707;50.184;18.966;2023-11-21T05:18:41;0.70;;;0.40;;
57889;SDS011;43707;50.184;18.966;2023-11-21T05:21:07;0.90;;;0.50;;
57889;SDS011;43707;50.184;18.966;2023-11-21T05:23:32;0.70;;;0.50;;
57889;SDS011;43707;50.184;18.966;2023-11-21T05:25:59;1.20;;;0.70;;
57889;SDS011;43707;50.184;18.966;2023-11-21T05:28:24;0.40;;;0.40;;
57889;SDS011;43707;50.184;18.966;2023-11-21T05:30:50;2.00;;;0.30;;
57889;SDS011;43707;50.184;18.966;2023-11-21T05:33:16;3.40;;;0.40;;
57889;SDS011;43707;50.184;18.966;2023-11-21T05:35:41;2.70;;;0.50;;
57889;SDS011;43707;50.184;18.966;2023-11-21T05:38:07;2.90;;;0.50;;
57889;SDS011;43707;50.184;18.966;2023-11-21T05:40:32;0.70;;;0.50;;
57889;SDS011;43707;50.184;18.966;2023-11-21T05:42:58;0.60;;;0.50;;
57889;SDS011;43707;50.184;18.966;2023-11-21T05:45:24;0.50;;;0.20;;
57889;SDS011;43707;50.184;18.966;2023-11-21T05:47:49;0.60;;;0.30;;
57889;SDS011;43707;50.184;18.966;2023-11-21T05:50:16;0.70;;;0.30;;
57889;SDS011;43707;50.184;18.966;2023-11-21T05:52:46;0.50;;;0.30;;
57889;SDS011;43707;50.184;18.966;2023-11-21T05:55:12;0.50;;;0.40;;
57889;SDS011;43707;50.184;18.966;2023-11-21T05:57:38;0.30;;;0.20;;
57889;SDS011;43707;50.184;18.966;2023-11-21T06:00:05;0.30;;;0.30;;
57889;SDS011;43707;50.184;18.966;2023-11-21T06:02:45;0.40;;;0.30;;
57889;SDS011;43707;50.184;18.966;2023-11-21T06:05:12;0.40;;;0.30;;
57889;SDS011;43707;50.184;18.966;2023-11-21T06:07:37;1.20;;;0.20;;
57889;SDS011;43707;50.184;18.966;2023-11-21T06:10:07;0.60;;;0.40;;
57889;SDS011;43707;50.184;18.966;2023-11-21T06:12:36;0.40;;;0.20;;
57889;SDS011;43707;50.184;18.966;2023-11-21T06:15:03;0.60;;;0.40;;
57889;SDS011;43707;50.184;18.966;2023-11-21T06:17:38;0.30;;;0.30;;
57889;SDS011;43707;50.184;18.966;2023-11-21T06:20:06;0.80;;;0.50;;
57889;SDS011;43707;50.184;18.966;2023-11-21T06:22:40;1.10;;;0.50;;
57889;SDS011;43707;50.184;18.966;2023-11-21T06:25:09;1.40;;;0.70;;
57889;SDS011;43707;50.184;18.966;2023-11-21T06:27:37;1.50;;;0.90;;
57889;SDS011;43707;50.184;18.966;2023-11-21T06:30:04;1.30;;;0.50;;
57889;SDS011;43707;50.184;18.966;2023-11-21T06:32:31;1.20;;;0.60;;
57889;SDS011;43707;50.184;18.966;2023-11-21T06:34:57;0.80;;;0.60;;
57889;SDS011;43707;50.184;18.966;2023-11-21T06:37:25;0.90;;;0.60;;
57889;SDS011;43707;50.184;18.966;2023-11-21T06:39:52;0.90;;;0.60;;
57889;SDS011;43707;50.184;18.966;2023-11-21T06:42:18;0.50;;;0.40;;
57889;SDS011;43707;50.184;18.966;2023-11-21T06:44:47;0.70;;;0.40;;
57889;SDS011;43707;50.184;18.966;2023-11-21T06:47:13;0.50;;;0.40;;
57889;SDS011;43707;50.184;18.966;2023-11-21T06:49:41;0.70;;;0.60;;
57889;SDS011;43707;50.184;18.966;2023-11-21T06:52:07;0.40;;;0.30;;
57889;SDS011;43707;50.184;18.966;2023-11-21T06:54:33;0.60;;;0.60;;
57889;SDS011;43707;50.184;18.966;2023-11-21T06:56:59;1.50;;;0.50;;
57889;SDS011;43707;50.184;18.966;2023-11-21T06:59:25;0.80;;;0.60;;
57889;SDS011;43707;50.184;18.966;2023-11-21T07:01:51;2.30;;;0.60;;
57889;SDS011;43707;50.184;18.966;2023-11-21T07:04:16;1.70;;;0.60;;
57889;SDS011;43707;50.184;18.966;2023-11-21T07:06:43;1.30;;;0.50;;
57889;SDS011;43707;50.184;18.966;2023-11-21T07:09:09;1.00;;;0.60;;
57889;SDS011;43707;50.184;18.966;2023-11-21T07:11:36;1.00;;;0.70;;
57889;SDS011;43707;50.184;18.966;2023-11-21T07:14:03;0.70;;;0.40;;
57889;SDS011;43707;50.184;18.966;2023-11-21T07:16:35;0.90;;;0.50;;
57889;SDS011;43707;50.184;18.966;2023-11-21T07:19:05;3.90;;;1.60;;
57889;SDS011;43707;50.184;18.966;2023-11-21T07:21:36;0.70;;;0.60;;
57889;SDS011;43707;50.184;18.966;2023-11-21T07:24:02;0.80;;;0.40;;
57889;SDS011;43707;50.184;18.966;2023-11-21T07:26:29;0.60;;;0.50;;
57889;SDS011;43707;50.184;18.966;2023-11-21T07:28:58;1.00;;;0.60;;
57889;SDS011;43707;50.184;18.966;2023-11-21T07:31:24;0.40;;;0.40;;
57889;SDS011;43707;50.184;18.966;2023-11-21T07:33:50;10.00;;;1.30;;
57889;SDS011;43707;50.184;18.966;2023-11-21T07:36:16;6.20;;;0.70;;
57889;SDS011;43707;50.184;18.966;2023-11-21T07:38:48;0.90;;;0.60;;
57889;SDS011;43707;50.184;18.966;2023-11-21T07:41:14;3.10;;;0.70;;
57889;SDS011;43707;50.184;18.966;2023-11-21T07:43:43;1.50;;;0.60;;
57889;SDS011;43707;50.184;18.966;2023-11-21T07:46:09;2.30;;;0.60;;
57889;SDS011;43707;50.184;18.966;2023-11-21T07:48:37;1.00;;;0.40;;
57889;SDS011;43707;50.184;18.966;2023-11-21T07:51:03;4.80;;;0.50;;
57889;SDS011;43707;50.184;18.966;2023-11-21T07:53:29;0.50;;;0.30;;
57889;SDS011;43707;50.184;18.966;2023-11-21T07:56:05;0.50;;;0.50;;
57889;SDS011;43707;50.184;18.966;2023-11-21T07:58:32;0.70;;;0.40;;
57889;SDS011;43707;50.184;18.966;2023-11-21T08:00:59;0.50;;;0.40;;
57889;SDS011;43707;50.184;18.966;2023-11-21T08:03:25;0.40;;;0.30;;
57889;SDS011;43707;50.184;18.966;2023-11-21T08:05:52;0.30;;;0.30;;
57889;SDS011;43707;50.184;18.966;2023-11-21T08:08:17;0.30;;;0.30;;
57889;SDS011;43707;50.184;18.966;2023-11-21T08:10:44;0.50;;;0.30;;
57889;SDS011;43707;50.184;18.966;2023-11-21T08:13:13;1.00;;;0.90;;
57889;SDS011;43707;50.184;18.966;2023-11-21T08:15:41;0.90;;;0.40;;
57889;SDS011;43707;50.184;18.966;2023-11-21T08:18:10;1.30;;;0.60;;
57889;SDS011;43707;50.184;18.966;2023-11-21T08:20:35;2.10;;;0.60;;
57889;SDS011;43707;50.184;18.966;2023-11-21T08:23:03;0.50;;;0.30;;
57889;SDS011;43707;50.184;18.966;2023-11-21T08:25:31;0.90;;;0.40;;
57889;SDS011;43707;50.184;18.966;2023-11-21T08:27:57;1.10;;;0.70;;
57889;SDS011;43707;50.184;18.966;2023-11-21T08:30:22;0.90;;;0.80;;
57889;SDS011;43707;50.184;18.966;2023-11-21T08:32:49;1.00;;;0.60;;
57889;SDS011;43707;50.184;18.966;2023-11-21T08:35:18;0.90;;;0.50;;
57889;SDS011;43707;50.184;18.966;2023-11-21T08:37:44;0.50;;;0.50;;
57889;SDS011;43707;50.184;18.966;2023-11-21T08:40:09;1.50;;;0.60;;
57889;SDS011;43707;50.184;18.966;2023-11-21T08:42:37;0.60;;;0.50;;
57889;SDS011;43707;50.184;18.966;2023-11-21T08:45:03;0.60;;;0.60;;
57889;SDS011;43707;50.184;18.966;2023-11-21T08:47:29;0.50;;;0.40;;
57889;SDS011;43707;50.184;18.966;2023-11-21T08:49:55;0.40;;;0.40;;
57889;SDS011;43707;50.184;18.966;2023-11-21T08:52:20;1.30;;;0.60;;
57889;SDS011;43707;50.184;18.966;2023-11-21T08:54:48;1.30;;;0.70;;
57889;SDS011;43707;50.184;18.966;2023-11-21T08:59:46;0.40;;;0.40;;
57889;SDS011;43707;50.184;18.966;2023-11-21T09:02:12;0.40;;;0.30;;
57889;SDS011;43707;50.184;18.966;2023-11-21T09:04:37;2.30;;;0.80;;
57889;SDS011;43707;50.184;18.966;2023-11-21T09:07:03;3.00;;;0.50;;
57889;SDS011;43707;50.184;18.966;2023-11-21T09:09:28;0.90;;;0.40;;
57889;SDS011;43707;50.184;18.966;2023-11-21T09:11:55;0.50;;;0.40;;
57889;SDS011;43707;50.184;18.966;2023-11-21T09:14:20;1.60;;;0.70;;
57889;SDS011;43707;50.184;18.966;2023-11-21T09:16:45;0.60;;;0.40;;
57889;SDS011;43707;50.184;18.966;2023-11-21T09:19:12;0.80;;;0.50;;
57889;SDS011;43707;50.184;18.966;2023-11-21T09:21:39;3.30;;;0.40;;
57889;SDS011;43707;50.184;18.966;2023-11-21T09:24:05;0.40;;;0.40;;
57889;SDS011;43707;50.184;18.966;2023-11-21T09:26:30;0.60;;;0.40;;
57889;SDS011;43707;50.184;18.966;2023-11-21T09:28:56;0.40;;;0.30;;
57889;SDS011;43707;50.184;18.966;2023-11-21T09:31:22;0.40;;;0.30;;
57889;SDS011;43707;50.184;18.966;2023-11-21T09:33:49;0.40;;;0.30;;
57889;SDS011;43707;50.184;18.966;2023-11-21T09:36:14;0.20;;;0.20;;
57889;SDS011;43707;50.184;18.966;2023-11-21T09:38:40;0.40;;;0.30;;
57889;SDS011;43707;50.184;18.966;2023-11-21T09:41:09;0.30;;;0.30;;
57889;SDS011;43707;50.184;18.966;2023-11-21T09:43:43;0.70;;;0.10;;
57889;SDS011;43707;50.184;18.966;2023-11-21T09:46:11;0.30;;;0.20;;
57889;SDS011;43707;50.184;18.966;2023-11-21T09:48:41;0.20;;;0.20;;
57889;SDS011;43707;50.184;18.966;2023-11-21T09:51:08;0.20;;;0.20;;
57889;SDS011;43707;50.184;18.966;2023-11-21T09:53:34;0.20;;;0.10;;
57889;SDS011;43707;50.184;18.966;2023-11-21T09:55:59;0.10;;;0.10;;
57889;SDS011;43707;50.184;18.966;2023-11-21T09:58:27;0.20;;;0.20;;
57889;SDS011;43707;50.184;18.966;2023-11-21T10:00:54;0.30;;;0.20;;
57889;SDS011;43707;50.184;18.966;2023-11-21T10:03:21;0.20;;;0.20;;
57889;SDS011;43707;50.184;18.966;2023-11-21T10:05:47;0.20;;;0.20;;
57889;SDS011;43707;50.184;18.966;2023-11-21T10:08:15;0.20;;;0.20;;
57889;SDS011;43707;50.184;18.966;2023-11-21T10:10:44;0.80;;;0.20;;
57889;SDS011;43707;50.184;18.966;2023-11-21T10:13:11;0.20;;;0.20;;
57889;SDS011;43707;50.184;18.966;2023-11-21T10:15:37;0.60;;;0.40;;
57889;SDS011;43707;50.184;18.966;2023-11-21T10:18:03;1.20;;;0.30;;
57889;SDS011;43707;50.184;18.966;2023-11-21T10:20:31;0.70;;;0.40;;
57889;SDS011;43707;50.184;18.966;2023-11-21T10:22:59;0.60;;;0.20;;
57889;SDS011;43707;50.184;18.966;2023-11-21T10:25:27;0.40;;;0.20;;
57889;SDS011;43707;50.184;18.966;2023-11-21T10:27:57;0.20;;;0.20;;
57889;SDS011;43707;50.184;18.966;2023-11-21T10:30:31;1.20;;;0.30;;
57889;SDS011;43707;50.184;18.966;2023-11-21T10:33:03;0.40;;;0.20;;
57889;SDS011;43707;50.184;18.966;2023-11-21T10:35:43;0.40;;;0.30;;
57889;SDS011;43707;50.184;18.966;2023-11-21T10:38:16;2.20;;;0.20;;
57889;SDS011;43707;50.184;18.966;2023-11-21T10:40:43;6.60;;;0.60;;
57889;SDS011;43707;50.184;18.966;2023-11-21T10:43:11;1.60;;;0.40;;
57889;SDS011;43707;50.184;18.966;2023-11-21T10:45:38;0.80;;;0.30;;
57889;SDS011;43707;50.184;18.966;2023-11-21T10:48:07;6.10;;;0.40;;
57889;SDS011;43707;50.184;18.966;2023-11-21T10:50:34;0.50;;;0.40;;
57889;SDS011;43707;50.184;18.966;2023-11-21T10:53:04;1.00;;;0.30;;
57889;SDS011;43707;50.184;18.966;2023-11-21T10:55:30;1.40;;;0.30;;
57889;SDS011;43707;50.184;18.966;2023-11-21T10:57:58;0.40;;;0.40;;
57889;SDS011;43707;50.184;18.966;2023-11-21T11:00:25;0.60;;;0.30;;
57889;SDS011;43707;50.184;18.966;2023-11-21T11:02:52;1.20;;;0.30;;
57889;SDS011;43707;50.184;18.966;2023-11-21T11:05:24;0.30;;;0.30;;
57889;SDS011;43707;50.184;18.966;2023-11-21T11:08:04;0.20;;;0.20;;
57889;SDS011;43707;50.184;18.966;2023-11-21T11:10:31;0.40;;;0.30;;
57889;SDS011;43707;50.184;18.966;2023-11-21T11:12:57;0.20;;;0.20;;
57889;SDS011;43707;50.184;18.966;2023-11-21T11:15:24;0.60;;;0.30;;
57889;SDS011;43707;50.184;18.966;2023-11-21T11:17:50;0.80;;;0.40;;
57889;SDS011;43707;50.184;18.966;2023-11-21T11:20:16;0.10;;;0.10;;
57889;SDS011;43707;50.184;18.966;2023-11-21T11:31:39;0.40;;;0.30;;
57889;SDS011;43707;50.184;18.966;2023-11-21T11:37:02;0.50;;;0.30;;
57889;SDS011;43707;50.184;18.966;2023-11-21T11:39:34;0.30;;;0.30;;
57889;SDS011;43707;50.184;18.966;2023-11-21T11:42:02;0.30;;;0.30;;
57889;SDS011;43707;50.184;18.966;2023-11-21T11:47:14;0.30;;;0.20;;
57889;SDS011;43707;50.184;18.966;2023-11-21T11:49:59;0.50;;;0.30;;
57889;SDS011;43707;50.184;18.966;2023-11-21T11:52:52;0.30;;;0.20;;
57889;SDS011;43707;50.184;18.966;2023-11-21T11:55:23;0.40;;;0.20;;
57889;SDS011;43707;50.184;18.966;2023-11-21T11:57:51;0.10;;;0.10;;
57889;SDS011;43707;50.184;18.966;2023-11-21T12:02:50;0.30;;;0.20;;
57889;SDS011;43707;50.184;18.966;2023-11-21T12:05:18;0.20;;;0.10;;
57889;SDS011;43707;50.184;18.966;2023-11-21T12:07:48;0.20;;;0.10;;
57889;SDS011;43707;50.184;18.966;2023-11-21T12:10:19;1.70;;;0.30;;
57889;SDS011;43707;50.184;18.966;2023-11-21T12:12:47;0.50;;;0.40;;
57889;SDS011;43707;50.184;18.966;2023-11-21T12:15:13;1.40;;;0.50;;
57889;SDS011;43707;50.184;18.966;2023-11-21T12:17:42;3.30;;;0.70;;
57889;SDS011;43707;50.184;18.966;2023-11-21T12:20:09;0.90;;;0.70;;
57889;SDS011;43707;50.184;18.966;2023-11-21T12:22:45;0.80;;;0.60;;
57889;SDS011;43707;50.184;18.966;2023-11-21T12:25:13;0.90;;;0.50;;
57889;SDS011;43707;50.184;18.966;2023-11-21T12:27:49;0.80;;;0.60;;
57889;SDS011;43707;50.184;18.966;2023-11-21T12:30:19;1.30;;;0.70;;
57889;SDS011;43707;50.184;18.966;2023-11-21T12:32:50;0.80;;;0.50;;
57889;SDS011;43707;50.184;18.966;2023-11-21T12:35:17;1.10;;;0.70;;
57889;SDS011;43707;50.184;18.966;2023-11-21T12:37:46;1.00;;;0.80;;
57889;SDS011;43707;50.184;18.966;2023-11-21T12:40:13;1.10;;;0.70;;
57889;SDS011;43707;50.184;18.966;2023-11-21T12:42:43;0.90;;;0.50;;
57889;SDS011;43707;50.184;18.966;2023-11-21T12:48:15;3.60;;;0.50;;
57889;SDS011;43707;50.184;18.966;2023-11-21T12:50:36;4.40;;;0.40;;
57889;SDS011;43707;50.184;18.966;2023-11-21T12:53:06;1.00;;;0.50;;
57889;SDS011;43707;50.184;18.966;2023-11-21T12:55:37;0.70;;;0.30;;
57889;SDS011;43707;50.184;18.966;2023-11-21T12:58:03;0.30;;;0.30;;
57889;SDS011;43707;50.184;18.966;2023-11-21T13:03:07;0.30;;;0.20;;
57889;SDS011;43707;50.184;18.966;2023-11-21T13:05:34;0.40;;;0.30;;
57889;SDS011;43707;50.184;18.966;2023-11-21T13:08:05;0.60;;;0.30;;
57889;SDS011;43707;50.184;18.966;2023-11-21T13:10:34;0.50;;;0.40;;
57889;SDS011;43707;50.184;18.966;2023-11-21T13:13:02;0.40;;;0.20;;
57889;SDS011;43707;50.184;18.966;2023-11-21T13:15:30;3.20;;;0.20;;
57889;SDS011;43707;50.184;18.966;2023-11-21T13:17:58;0.30;;;0.30;;
57889;SDS011;43707;50.184;18.966;2023-11-21T13:20:24;0.50;;;0.30;;
57889;SDS011;43707;50.184;18.966;2023-11-21T13:22:54;0.30;;;0.20;;
57889;SDS011;43707;50.184;18.966;2023-11-21T13:25:27;0.40;;;0.30;;
57889;SDS011;43707;50.184;18.966;2023-11-21T13:27:57;0.30;;;0.30;;
57889;SDS011;43707;50.184;18.966;2023-11-21T13:30:24;0.30;;;0.30;;
57889;SDS011;43707;50.184;18.966;2023-11-21T13:33:02;0.40;;;0.40;;
57889;SDS011;43707;50.184;18.966;2023-11-21T13:35:31;0.40;;;0.30;;
57889;SDS011;43707;50.184;18.966;2023-11-21T13:38:10;0.40;;;0.30;;
57889;SDS011;43707;50.184;18.966;2023-11-21T13:40:47;0.70;;;0.30;;
57889;SDS011;43707;50.184;18.966;2023-11-21T13:43:15;1.00;;;0.40;;
57889;SDS011;43707;50.184;18.966;2023-11-21T13:45:43;1.90;;;0.60;;
57889;SDS011;43707;50.184;18.966;2023-11-21T13:48:10;2.40;;;0.30;;
57889;SDS011;43707;50.184;18.966;2023-11-21T13:50:42;0.90;;;0.40;;
57889;SDS011;43707;50.184;18.966;2023-11-21T13:53:23;0.60;;;0.40;;
57889;SDS011;43707;50.184;18.966;2023-11-21T13:55:49;2.10;;;0.30;;
57889;SDS011;43707;50.184;18.966;2023-11-21T13:58:16;0.40;;;0.30;;
57889;SDS011;43707;50.184;18.966;2023-11-21T14:00:47;0.30;;;0.30;;
57889;SDS011;43707;50.184;18.966;2023-11-21T14:03:20;0.50;;;0.30;;
57889;SDS011;43707;50.184;18.966;2023-11-21T14:05:49;0.30;;;0.30;;
57889;SDS011;43707;50.184;18.966;2023-11-21T14:08:19;0.50;;;0.20;;
57889;SDS011;43707;50.184;18.966;2023-11-21T14:10:47;2.10;;;0.50;;
57889;SDS011;43707;50.184;18.966;2023-11-21T14:13:18;0.50;;;0.40;;
57889;SDS011;43707;50.184;18.966;2023-11-21T14:15:44;0.40;;;0.40;;
57889;SDS011;43707;50.184;18.966;2023-11-21T14:18:12;0.60;;;0.50;;
57889;SDS011;43707;50.184;18.966;2023-11-21T14:20:42;7.50;;;0.50;;
57889;SDS011;43707;50.184;18.966;2023-11-21T14:23:09;1.70;;;0.40;;
57889;SDS011;43707;50.184;18.966;2023-11-21T14:25:35;0.50;;;0.30;;
57889;SDS011;43707;50.184;18.966;2023-11-21T14:28:05;0.30;;;0.30;;
57889;SDS011;43707;50.184;18.966;2023-11-21T14:30:36;0.50;;;0.30;;
57889;SDS011;43707;50.184;18.966;2023-11-21T14:33:04;0.40;;;0.30;;
57889;SDS011;43707;50.184;18.966;2023-11-21T14:35:31;0.30;;;0.30;;
57889;SDS011;43707;50.184;18.966;2023-11-21T14:37:58;0.50;;;0.40;;
57889;SDS011;43707;50.184;18.966;2023-11-21T14:40:24;0.30;;;0.20;;
57889;SDS011;43707;50.184;18.966;2023-11-21T14:42:50;0.10;;;0.10;;
57889;SDS011;43707;50.184;18.966;2023-11-21T14:45:20;1.20;;;0.30;;
57889;SDS011;43707;50.184;18.966;2023-11-21T14:47:47;0.40;;;0.20;;
57889;SDS011;43707;50.184;18.966;2023-11-21T14:50:23;3.70;;;0.30;;
57889;SDS011;43707;50.184;18.966;2023-11-21T14:53:09;0.40;;;0.20;;
57889;SDS011;43707;50.184;18.966;2023-11-21T14:55:37;0.20;;;0.20;;
57889;SDS011;43707;50.184;18.966;2023-11-21T14:58:14;0.50;;;0.30;;
57889;SDS011;43707;50.184;18.966;2023-11-21T15:00:45;0.20;;;0.20;;
57889;SDS011;43707;50.184;18.966;2023-11-21T15:03:11;1.10;;;0.40;;